Time;durP1;ratioP1;P1;durP2;ratioP2;P2;SDS_P1;SDS_P2;PMS_P1;PMS_P2;Temp;Humidity;BMP_temperature;BMP_pressure;BME280_temperature;BME280_humidity;BME280_pressure;Samples;Min_cycle;Max_cycle;Signal;HPM_P1;HPM_P2
2022/01/11 00:01:00;;;;;;;10.60;5.20;;;;;;;-2.53;64.24;100454.16;6042132;23;20018;-80
2022/01/11 00:03:26;;;;;;;11.45;5.57;;;;;;;-2.50;64.04;100453.47;6067138;23;20093;-80
2022/01/11 00:06:02;;;;;;;13.32;5.82;;;;;;;-2.55;64.18;100443.03;6089179;23;20022;-82
2022/01/11 00:08:32;;;;;;;12.20;5.35;;;;;;;-2.48;64.50;100442.56;6068084;23;20093;-81
2022/01/11 00:11:04;;;;;;;15.13;5.57;;;;;;;-2.35;64.21;100463.63;6068506;23;20140;-83
2022/01/11 00:13:31;;;;;;;;;;;;;;;-2.43;63.88;100461.53;6067254;23;20029;-83
2022/01/11 00:15:57;;;;;;;12.98;5.53;;;;;;;-2.46;64.57;100463.91;6092711;23;19913;-82
2022/01/11 00:18:23;;;;;;;11.48;5.13;;;;;;;-2.38;64.52;100469.44;6067252;23;20074;-79
2022/01/11 00:20:51;;;;;;;13.55;5.38;;;;;;;-2.53;64.92;100449.06;6078859;23;20027;-77
2022/01/11 00:25:47;;;;;;;14.43;6.00;;;;;;;-2.56;64.33;100456.59;6066944;23;20025;-84
2022/01/11 00:28:16;;;;;;;15.93;6.03;;;;;;;-2.73;64.38;100417.44;6091141;23;20026;-81
2022/01/11 00:30:50;;;;;;;12.20;5.30;;;;;;;-2.54;64.42;100443.91;6091416;23;20105;-83
2022/01/11 00:33:22;;;;;;;16.05;5.35;;;;;;;-2.29;64.37;100482.69;6067680;23;20022;-83
2022/01/11 00:35:58;;;;;;;16.95;7.13;;;;;;;-2.21;64.01;100482.22;6046105;23;20092;-82
2022/01/11 00:38:28;;;;;;;19.77;6.63;;;;;;;-2.93;64.20;100373.00;6072455;23;20014;-79
2022/01/11 00:40:58;;;;;;;15.17;6.00;;;;;;;-2.09;64.75;100484.53;6074022;23;20149;-83
2022/01/11 00:43:26;;;;;;;15.23;5.80;;;;;;;-2.55;64.52;100398.81;6044196;23;20251;-81
2022/01/11 00:45:53;;;;;;;14.85;5.65;;;;;;;-2.05;64.63;100471.16;6067770;23;20018;-84
2022/01/11 00:48:20;;;;;;;27.20;8.98;;;;;;;-1.91;64.52;100485.53;6067631;23;20018;-82
2022/01/11 00:50:47;;;;;;;21.58;8.63;;;;;;;-1.97;64.23;100475.00;6043995;23;20464;-81
2022/01/11 00:53:14;;;;;;;20.13;8.32;;;;;;;-2.03;64.11;100482.31;6043411;23;20023;-82
2022/01/11 00:55:40;;;;;;;22.73;8.40;;;;;;;-1.99;63.99;100495.34;6068790;23;20023;-83
2022/01/11 00:58:06;;;;;;;24.77;7.60;;;;;;;-2.03;64.48;100505.28;6074157;23;20465;-80
2022/01/11 01:00:36;;;;;;;21.92;8.13;;;;;;;-2.17;63.24;100507.97;6091159;23;20022;-81
2022/01/11 01:03:02;;;;;;;11.48;4.65;;;;;;;-2.34;63.75;100516.38;6067727;23;20113;-84
2022/01/11 01:05:28;;;;;;;13.57;4.78;;;;;;;-2.43;64.36;100517.63;6042726;23;20406;-81
2022/01/11 01:07:54;;;;;;;12.88;5.20;;;;;;;-2.40;64.26;100527.09;6068439;23;20091;-81
2022/01/11 01:10:29;;;;;;;10.57;4.70;;;;;;;-2.40;64.08;100531.34;6092307;23;20019;-80
2022/01/11 01:12:58;;;;;;;11.98;5.32;;;;;;;-2.45;63.77;100538.75;6069949;23;20433;-79
2022/01/11 01:15:26;;;;;;;13.20;4.78;;;;;;;-2.50;64.31;100524.84;6076743;23;20018;-80
2022/01/11 01:17:53;;;;;;;14.85;5.68;;;;;;;-2.66;64.06;100502.72;6110137;23;20023;-79
2022/01/11 01:20:20;;;;;;;10.70;4.63;;;;;;;-2.46;64.37;100536.97;6110923;23;20479;-78
2022/01/11 01:22:50;;;;;;;10.40;4.18;;;;;;;-2.52;64.39;100541.72;6087463;23;20022;-78
2022/01/11 01:25:21;;;;;;;11.93;4.63;;;;;;;-2.72;64.15;100519.41;6108744;23;20022;-81
2022/01/11 01:27:48;;;;;;;11.32;4.70;;;;;;;-2.58;64.37;100547.38;6106594;23;20026;-80
2022/01/11 01:30:16;;;;;;;13.50;4.53;;;;;;;-2.65;64.36;100522.31;6085337;23;20023;-77
2022/01/11 01:32:42;;;;;;;14.15;5.15;;;;;;;-2.82;63.62;100518.81;6117401;23;20042;-78
2022/01/11 01:35:08;;;;;;;9.77;4.90;;;;;;;-2.88;64.65;100517.69;6116089;23;20022;-81
2022/01/11 01:37:34;;;;;;;14.25;5.30;;;;;;;-2.75;63.99;100541.31;6115339;23;20086;-77
2022/01/11 01:40:02;;;;;;;13.63;5.35;;;;;;;-2.72;64.41;100538.94;6091217;23;20422;-81
2022/01/11 01:42:31;;;;;;;12.48;4.97;;;;;;;-2.73;64.01;100540.59;6088829;23;20019;-83
2022/01/11 01:45:01;;;;;;;11.95;5.25;;;;;;;-2.58;64.53;100557.56;6086182;23;20093;-80
2022/01/11 01:47:29;;;;;;;10.88;4.82;;;;;;;-2.79;64.18;100552.13;6092813;23;20101;-78
2022/01/11 01:49:55;;;;;;;12.23;5.00;;;;;;;-2.84;64.37;100541.66;6068852;23;20019;-82
2022/01/11 01:52:22;;;;;;;10.10;4.45;;;;;;;-3.05;64.10;100524.38;6068221;23;20038;-79
2022/01/11 01:54:50;;;;;;;11.13;4.90;;;;;;;-3.04;63.88;100536.31;6067896;23;20061;-83
2022/01/11 01:57:16;;;;;;;14.00;5.07;;;;;;;-3.03;64.27;100543.16;6066291;23;20023;-81
2022/01/11 01:59:42;;;;;;;10.23;4.72;;;;;;;-3.15;63.70;100542.44;6019148;23;20045;-83
2022/01/11 02:02:10;;;;;;;11.70;4.50;;;;;;;-3.04;64.00;100551.59;6046949;23;20023;-84
2022/01/11 02:04:35;;;;;;;12.07;4.80;;;;;;;-3.03;64.37;100545.72;6092710;23;20361;-77
2022/01/11 02:07:01;;;;;;;9.45;4.60;;;;;;;-3.17;63.96;100533.81;6068811;23;20019;-79
2022/01/11 02:09:27;;;;;;;10.75;4.88;;;;;;;-3.11;64.33;100551.16;6100533;23;20045;-77
2022/01/11 02:11:53;;;;;;;11.98;5.20;;;;;;;-3.04;64.14;100577.06;6057520;23;20332;-78
2022/01/11 02:14:20;;;;;;;10.27;4.55;;;;;;;-3.11;64.43;100557.09;6079336;23;20019;-78
2022/01/11 02:16:47;;;;;;;9.68;4.93;;;;;;;-3.18;63.88;100544.78;6066667;23;20119;-81
2022/01/11 02:19:14;;;;;;;9.48;4.88;;;;;;;-3.05;64.29;100570.22;6070388;23;20470;-80
2022/01/11 02:21:41;;;;;;;11.80;5.28;;;;;;;-3.05;64.01;100570.22;6067422;23;20031;-82
2022/01/11 02:24:07;;;;;;;10.73;4.65;;;;;;;-3.26;63.94;100548.59;6090163;23;20049;-82
2022/01/11 02:26:35;;;;;;;11.23;5.13;;;;;;;-3.09;63.93;100595.41;6092226;23;20089;-84
2022/01/11 02:29:02;;;;;;;9.32;4.78;;;;;;;-3.08;64.61;100575.13;6095949;23;20018;-80
2022/01/11 02:31:29;;;;;;;9.57;4.90;;;;;;;-3.31;64.17;100549.97;6109010;23;20047;-80
2022/01/11 02:33:58;;;;;;;11.10;5.20;;;;;;;-3.40;63.87;100542.66;6066350;23;20066;-78
2022/01/11 02:36:48;;;;;;;10.10;4.60;;;;;;;-3.19;64.58;100558.31;6094264;23;20042;-79
2022/01/11 02:39:45;;;;;;;12.50;4.70;;;;;;;-3.15;64.25;100559.41;6065084;23;20063;-79
2022/01/11 02:42:31;;;;;;;12.00;4.95;;;;;;;-3.24;64.14;100541.91;6086227;23;20033;-83
2022/01/11 02:44:56;;;;;;;12.73;5.43;;;;;;;-3.23;63.80;100558.94;6084190;23;20026;-79
2022/01/11 02:47:23;;;;;;;10.15;4.15;;;;;;;-3.29;64.02;100561.13;6100332;23;20018;-82
2022/01/11 02:49:52;;;;;;;9.32;4.57;;;;;;;-3.17;63.98;100589.84;6091848;23;20501;-80
2022/01/11 02:52:22;;;;;;;9.55;5.20;;;;;;;-3.48;64.30;100532.03;6074323;23;20067;-82
2022/01/11 02:54:58;;;;;;;9.70;4.60;;;;;;;-3.15;63.97;100580.63;6073695;23;20026;-77
2022/01/11 02:57:25;;;;;;;8.68;4.88;;;;;;;-3.20;64.29;100585.47;6091961;23;20093;-81
2022/01/11 03:00:09;;;;;;;9.85;4.85;;;;;;;-3.16;63.63;100596.69;6041084;23;20102;-77
2022/01/11 03:02:34;;;;;;;11.82;5.13;;;;;;;-3.07;64.33;100601.44;6064702;23;20018;-80
2022/01/11 03:05:00;;;;;;;11.75;5.28;;;;;;;-3.30;63.78;100562.78;6065207;23;20358;-80
2022/01/11 03:07:27;;;;;;;11.73;5.38;;;;;;;-3.03;64.02;100608.50;6065456;23;20027;-78
2022/01/11 03:10:02;;;;;;;11.40;4.88;;;;;;;-3.26;64.30;100540.94;6064729;23;20354;-77
2022/01/11 03:12:35;;;;;;;10.55;4.60;;;;;;;-2.97;64.14;100602.88;6043463;23;20038;-79
2022/01/11 03:15:01;;;;;;;9.10;4.18;;;;;;;-3.01;64.14;100606.91;6066261;23;20137;-78
2022/01/11 03:17:28;;;;;;;7.90;4.28;;;;;;;-3.12;64.02;100601.19;6070320;23;20022;-76
2022/01/11 03:19:54;;;;;;;8.30;4.07;;;;;;;-3.07;64.06;100612.53;6102595;23;20025;-77
2022/01/11 03:22:20;;;;;;;9.18;4.25;;;;;;;-3.10;63.66;100612.34;6080751;23;20038;-77
2022/01/11 03:24:46;;;;;;;9.25;4.82;;;;;;;-3.10;63.94;100612.34;6067242;23;20098;-77
2022/01/11 03:27:13;;;;;;;8.65;4.00;;;;;;;-3.23;63.53;100597.16;6090591;23;20026;-79
2022/01/11 03:29:40;;;;;;;9.48;4.70;;;;;;;-3.10;63.51;100619.13;6091051;23;20079;-81
2022/01/11 03:32:08;;;;;;;6.78;4.20;;;;;;;-3.52;63.03;100568.28;6091635;23;20106;-83
2022/01/11 03:34:34;;;;;;;9.43;4.22;;;;;;;-3.27;63.68;100633.38;6090992;23;20023;-80
2022/01/11 03:37:00;;;;;;;7.97;4.28;;;;;;;-3.24;63.98;100636.13;6091096;23;20026;-79
2022/01/11 03:39:27;;;;;;;11.38;4.90;;;;;;;-3.23;63.99;100630.25;6067083;23;20475;-79
2022/01/11 03:41:55;;;;;;;8.88;3.95;;;;;;;-3.25;63.16;100622.50;6072287;23;20071;-80
2022/01/11 03:44:21;;;;;;;9.05;4.10;;;;;;;-3.34;63.95;100599.91;6067392;23;20034;-79
2022/01/11 03:46:47;;;;;;;10.43;4.72;;;;;;;-3.35;63.67;100621.06;6043127;23;20019;-81
2022/01/11 03:49:13;;;;;;;8.35;4.53;;;;;;;-3.30;63.78;100634.06;6068317;23;20023;-78
2022/01/11 03:51:39;;;;;;;12.70;5.10;;;;;;;-3.37;63.54;100616.69;6075311;23;20041;-77
2022/01/11 03:54:13;;;;;;;10.52;4.43;;;;;;;-3.41;63.07;100623.22;6087819;23;20030;-79
2022/01/11 03:56:54;;;;;;;10.30;4.45;;;;;;;-3.67;63.40;100586.03;6067086;23;20086;-80
2022/01/11 03:59:23;;;;;;;9.80;4.18;;;;;;;-3.45;62.86;100654.41;6065778;23;20105;-78
2022/01/11 04:01:51;;;;;;;9.20;4.47;;;;;;;-3.67;63.14;100622.53;6066431;23;20023;-80
2022/01/11 04:04:17;;;;;;;10.85;4.65;;;;;;;-3.45;63.63;100668.78;6041578;23;20022;-80
2022/01/11 04:06:43;;;;;;;7.60;3.55;;;;;;;-3.57;62.47;100654.53;6089353;23;20586;-79
2022/01/11 04:09:11;;;;;;;9.13;4.50;;;;;;;-3.61;63.07;100651.66;6065321;23;20029;-81
2022/01/11 04:11:37;;;;;;;9.05;4.13;;;;;;;-3.73;62.68;100639.06;6066174;23;20041;-79
2022/01/11 04:14:03;;;;;;;7.53;3.55;;;;;;;-3.91;62.68;100615.94;6066022;23;20476;-80
2022/01/11 04:16:29;;;;;;;7.30;3.75;;;;;;;-3.62;62.96;100671.16;6065463;23;20033;-82
2022/01/11 04:18:57;;;;;;;6.38;3.63;;;;;;;-3.81;62.44;100658.94;6089156;23;20015;-83
2022/01/11 04:21:23;;;;;;;8.27;4.28;;;;;;;-3.86;62.31;100670.50;6088692;23;20546;-80
2022/01/11 04:23:54;;;;;;;7.15;3.88;;;;;;;-3.93;62.14;100664.13;6065319;23;20055;-80
2022/01/11 04:26:19;;;;;;;6.30;3.20;;;;;;;-4.13;62.96;100634.91;6066467;23;20074;-80
2022/01/11 04:28:46;;;;;;;6.45;3.38;;;;;;;-3.96;62.62;100659.75;6065377;23;20022;-80
2022/01/11 04:31:12;;;;;;;9.05;4.18;;;;;;;-3.75;62.29;100696.63;6041404;23;20223;-80
2022/01/11 04:33:43;;;;;;;9.27;4.32;;;;;;;-4.09;62.94;100631.78;6042424;23;20023;-80
2022/01/11 04:36:11;;;;;;;9.70;4.07;;;;;;;-4.04;62.60;100658.38;6069658;23;20042;-78
2022/01/11 04:38:37;;;;;;;6.13;3.70;;;;;;;-3.99;62.63;100674.81;6090041;23;20015;-79
2022/01/11 04:41:04;;;;;;;8.60;3.50;;;;;;;-3.87;62.49;100706.91;6089230;23;20018;-80
2022/01/11 04:43:36;;;;;;;7.53;3.53;;;;;;;-4.15;62.51;100664.44;6067560;23;20018;-77
2022/01/11 04:46:02;;;;;;;5.70;3.40;;;;;;;-3.78;62.96;100717.66;6041536;23;20105;-80
2022/01/11 04:48:32;;;;;;;8.48;3.88;;;;;;;-3.87;62.13;100734.88;6041441;23;20019;-80
2022/01/11 04:51:02;;;;;;;6.78;3.45;;;;;;;-4.10;61.94;100732.59;6042333;23;20023;-79
2022/01/11 04:53:29;;;;;;;6.20;3.53;;;;;;;-4.26;62.55;100715.47;6066974;23;20019;-81
2022/01/11 04:55:57;;;;;;;6.15;3.08;;;;;;;-4.34;62.24;100705.56;6043772;23;20054;-80
2022/01/11 04:58:23;;;;;;;6.30;2.85;;;;;;;-4.15;62.15;100739.03;6044706;23;20078;-79
2022/01/11 05:00:49;;;;;;;9.82;2.90;;;;;;;-4.32;61.82;100724.34;6090908;23;20100;-81
2022/01/11 05:03:19;;;;;;;5.85;3.53;;;;;;;-4.29;62.59;100730.50;6081694;23;20018;-80
2022/01/11 05:05:48;;;;;;;7.88;3.50;;;;;;;-4.42;62.54;100708.50;6106387;23;20102;-80
2022/01/11 05:08:14;;;;;;;8.85;4.13;;;;;;;-4.48;62.35;100694.50;6093383;23;20038;-78
2022/01/11 05:10:44;;;;;;;6.82;3.47;;;;;;;-4.57;62.38;100682.06;6096284;23;20018;-77
2022/01/11 05:13:14;;;;;;;6.05;3.00;;;;;;;-4.42;62.10;100731.38;6086376;23;20022;-80
2022/01/11 05:15:40;;;;;;;4.72;3.15;;;;;;;-4.50;62.03;100716.38;6087607;23;20078;-79
2022/01/11 05:18:07;;;;;;;7.45;3.38;;;;;;;-4.30;62.32;100744.00;6076598;23;20019;-78
2022/01/11 05:20:38;;;;;;;5.88;3.20;;;;;;;-4.36;62.09;100741.06;6072077;23;20105;-80
2022/01/11 05:23:05;;;;;;;7.20;3.50;;;;;;;-4.35;62.24;100763.16;6096576;23;20114;-79
2022/01/11 05:25:31;;;;;;;8.73;3.40;;;;;;;-4.44;62.38;100742.22;6084980;23;20025;-78
2022/01/11 05:27:59;;;;;;;6.53;3.35;;;;;;;-4.50;62.13;100750.31;6081552;23;20025;-80
2022/01/11 05:30:26;;;;;;;7.70;3.67;;;;;;;-4.41;62.27;100765.28;6074143;23;20026;-79
2022/01/11 05:32:54;;;;;;;8.00;3.42;;;;;;;-4.35;61.99;100773.31;6110785;23;20041;-78
2022/01/11 05:35:21;;;;;;;5.40;3.10;;;;;;;-4.38;61.76;100776.53;6113973;23;20046;-78
2022/01/11 05:37:48;;;;;;;7.00;3.75;;;;;;;-4.36;62.45;100771.56;6114670;23;20030;-79
2022/01/11 05:40:16;;;;;;;6.90;3.35;;;;;;;-4.34;61.95;100782.72;6114285;23;19991;-76
2022/01/11 05:42:42;;;;;;;6.03;3.75;;;;;;;-4.43;61.25;100762.66;6079148;23;20022;-80
2022/01/11 05:45:09;;;;;;;7.07;3.65;;;;;;;-4.44;61.66;100772.69;6074651;23;20021;-80
2022/01/11 05:47:36;;;;;;;5.95;3.38;;;;;;;-4.40;61.12;100782.28;6076311;23;20018;-78
2022/01/11 05:50:05;;;;;;;8.18;3.20;;;;;;;-4.51;61.58;100773.94;6076180;23;20015;-78
2022/01/11 05:52:31;;;;;;;6.28;3.55;;;;;;;-4.43;61.43;100795.69;6102325;23;20097;-79
2022/01/11 05:54:58;;;;;;;6.80;3.22;;;;;;;-4.65;61.92;100760.31;6106775;23;20019;-77
2022/01/11 05:57:24;;;;;;;6.78;3.42;;;;;;;-4.40;61.81;100789.91;6080625;23;20096;-79
2022/01/11 05:59:50;;;;;;;6.75;3.60;;;;;;;-4.76;61.75;100736.72;6101190;23;20015;-79
2022/01/11 06:02:16;;;;;;;10.20;3.92;;;;;;;-4.58;61.57;100790.44;6077990;23;20480;-80
2022/01/11 06:04:43;;;;;;;7.18;3.30;;;;;;;-4.39;61.95;100822.19;6102214;23;20110;-80
2022/01/11 06:07:12;;;;;;;8.15;3.60;;;;;;;-4.47;60.70;100816.59;6084572;23;20027;-78
2022/01/11 06:09:38;;;;;;;6.68;3.75;;;;;;;-4.54;61.03;100827.09;6062215;23;20022;-76
2022/01/11 06:12:04;;;;;;;11.55;5.07;;;;;;;-4.47;61.80;100831.84;6110227;23;20070;-78
2022/01/11 06:14:32;;;;;;;9.90;4.95;;;;;;;-4.47;61.82;100830.94;6089529;23;20003;-79
2022/01/11 06:16:59;;;;;;;11.95;5.18;;;;;;;-4.59;61.15;100825.91;6083301;23;20022;-77
2022/01/11 06:19:26;;;;;;;8.95;3.72;;;;;;;-4.99;62.05;100746.19;6084969;23;20029;-78
2022/01/11 06:22:05;;;;;;;8.00;3.42;;;;;;;-5.18;60.59;100735.53;6110220;23;20054;-78
2022/01/11 06:24:31;;;;;;;8.73;3.90;;;;;;;-4.97;61.26;100796.19;6085420;23;20019;-78
2022/01/11 06:26:57;;;;;;;6.65;3.60;;;;;;;-4.66;60.92;100838.97;6107122;23;20562;-78
2022/01/11 06:29:25;;;;;;;6.60;2.95;;;;;;;-4.70;61.16;100841.28;6062635;23;20070;-78
2022/01/11 06:31:52;;;;;;;7.32;3.15;;;;;;;-4.78;61.13;100839.00;6108451;23;20046;-81
2022/01/11 06:34:19;;;;;;;5.68;2.85;;;;;;;-4.79;60.42;100845.72;6084230;23;20030;-78
2022/01/11 06:36:45;;;;;;;5.45;2.92;;;;;;;-4.84;61.19;100829.28;6078174;23;20162;-80
2022/01/11 06:39:11;;;;;;;6.82;2.83;;;;;;;-5.02;60.97;100822.16;6097836;23;20014;-80
2022/01/11 06:41:40;;;;;;;5.68;2.45;;;;;;;-4.96;60.99;100836.06;6099827;23;20029;-79
2022/01/11 06:44:12;;;;;;;8.57;3.13;;;;;;;-4.76;60.56;100848.47;6074129;23;20034;-83
2022/01/11 06:46:40;;;;;;;5.22;2.65;;;;;;;-4.97;60.54;100812.34;6098407;23;20080;-79
2022/01/11 06:49:06;;;;;;;7.30;3.20;;;;;;;-4.75;60.52;100877.31;6074865;23;20022;-80
2022/01/11 06:51:35;;;;;;;4.95;2.97;;;;;;;-4.74;60.43;100881.59;6076308;23;20018;-79
2022/01/11 06:54:04;;;;;;;6.13;3.38;;;;;;;-4.88;60.42;100866.28;6050451;23;20025;-81
2022/01/11 06:56:30;;;;;;;7.72;3.60;;;;;;;-4.80;61.14;100871.03;6075247;23;20029;-80
2022/01/11 06:59:06;;;;;;;7.13;3.40;;;;;;;-4.90;59.80;100862.75;6080635;23;20050;-79
2022/01/11 07:01:34;;;;;;;5.47;3.15;;;;;;;-4.86;60.28;100874.91;6066939;23;20078;-79
2022/01/11 07:04:05;;;;;;;7.93;3.63;;;;;;;-4.82;60.47;100883.59;6030829;23;20014;-78
2022/01/11 07:06:41;;;;;;;8.43;4.00;;;;;;;-4.96;60.61;100854.69;6077166;23;20081;-80
2022/01/11 07:09:07;;;;;;;9.05;3.63;;;;;;;-4.75;60.56;100893.44;6099420;23;20022;-81
2022/01/11 07:11:36;;;;;;;8.57;3.72;;;;;;;-4.80;60.34;100876.09;6074837;23;20019;-79
2022/01/11 07:14:03;;;;;;;6.90;3.60;;;;;;;-4.62;60.52;100899.34;6095678;23;20027;-81
2022/01/11 07:16:31;;;;;;;6.10;3.25;;;;;;;-4.86;59.87;100856.25;6098856;23;20097;-82
2022/01/11 07:18:58;;;;;;;6.95;3.35;;;;;;;-4.62;60.37;100906.97;6102081;23;20368;-81
2022/01/11 07:21:24;;;;;;;6.43;3.17;;;;;;;-4.89;60.02;100871.28;6074105;23;20124;-78
2022/01/11 07:23:50;;;;;;;8.50;3.25;;;;;;;-4.55;59.86;100927.88;6104916;23;20342;-78
2022/01/11 07:26:15;;;;;;;7.55;3.13;;;;;;;-4.60;59.69;100920.66;6089539;23;20078;-77
2022/01/11 07:28:41;;;;;;;9.30;3.40;;;;;;;-4.71;59.76;100910.66;6071722;23;20019;-81
2022/01/11 07:31:12;;;;;;;7.25;2.90;;;;;;;-4.75;59.64;100901.06;6077205;23;20077;-81
2022/01/11 07:33:45;;;;;;;6.50;2.97;;;;;;;-4.79;59.60;100928.69;6074452;23;20500;-79
2022/01/11 07:36:11;;;;;;;4.78;2.15;;;;;;;-5.12;59.18;100912.78;6079837;23;20083;-82
2022/01/11 07:38:39;;;;;;;6.25;2.75;;;;;;;-5.43;59.33;100901.28;6075322;23;20026;-79
2022/01/11 07:41:12;;;;;;;6.07;2.50;;;;;;;-5.27;58.94;100943.91;6093986;23;20019;-82
2022/01/11 07:43:52;;;;;;;6.65;2.50;;;;;;;-5.53;59.35;100912.41;6095467;23;20105;-80
2022/01/11 07:46:23;;;;;;;5.05;2.97;;;;;;;-5.60;59.20;100902.56;6074757;23;20349;-79
2022/01/11 07:48:51;;;;;;;3.88;2.53;;;;;;;-5.77;59.47;100879.41;6074094;23;20071;-81
2022/01/11 07:51:18;;;;;;;5.40;2.60;;;;;;;-5.59;59.49;100911.94;6073289;23;20018;-79
2022/01/11 07:53:44;;;;;;;7.35;2.88;;;;;;;-5.50;59.12;100940.56;6095753;23;20504;-81
2022/01/11 07:56:16;;;;;;;7.55;2.88;;;;;;;-5.81;59.23;100897.69;6095648;23;20022;-82
2022/01/11 07:58:42;;;;;;;5.93;2.45;;;;;;;-5.53;58.71;100944.53;6045389;23;20015;-81
2022/01/11 08:01:11;;;;;;;7.53;2.85;;;;;;;-5.42;59.36;100956.34;6069436;23;20027;-81
2022/01/11 08:03:49;;;;;;;6.82;3.00;;;;;;;-6.34;58.67;100805.88;6047405;23;20022;-81
2022/01/11 08:06:32;;;;;;;6.50;3.28;;;;;;;-6.59;59.00;100761.84;6069826;23;20018;-78
2022/01/11 08:09:07;;;;;;;6.03;2.72;;;;;;;-5.50;58.72;100940.56;6094170;23;20365;-81
2022/01/11 08:11:34;;;;;;;8.20;3.15;;;;;;;-5.35;58.68;100956.03;6071098;23;20520;-78
2022/01/11 08:14:00;;;;;;;6.60;2.88;;;;;;;-5.68;58.76;100912.16;6096484;23;20057;-80
2022/01/11 08:16:26;;;;;;;6.82;2.97;;;;;;;-5.23;58.69;100955.16;6097245;23;20078;-79
2022/01/11 08:18:54;;;;;;;6.70;3.22;;;;;;;-5.47;58.56;100899.28;6093846;23;20457;-79
2022/01/11 08:21:21;;;;;;;7.93;4.03;;;;;;;-5.70;58.72;100844.34;6045890;23;20461;-82
2022/01/11 08:23:48;;;;;;;6.35;3.33;;;;;;;-5.31;58.60;100907.28;6096729;23;20023;-78
2022/01/11 08:26:15;;;;;;;7.88;3.78;;;;;;;-4.97;57.90;100963.78;6069822;23;20022;-80
2022/01/11 08:28:43;;;;;;;8.25;4.07;;;;;;;-5.11;58.32;100914.53;6098657;23;20002;-82
2022/01/11 08:31:11;;;;;;;6.82;3.47;;;;;;;-5.30;57.35;100883.66;6070451;23;20134;-80
2022/01/11 08:33:43;;;;;;;7.90;3.15;;;;;;;-5.15;57.67;100921.94;6076623;23;20042;-78
2022/01/11 08:36:11;;;;;;;7.50;3.00;;;;;;;-5.51;57.91;100856.69;6086877;23;20029;-79
2022/01/11 08:38:37;;;;;;;4.28;2.50;;;;;;;-4.71;58.21;100960.56;6072807;23;20022;-82
2022/01/11 08:41:07;;;;;;;7.55;3.22;;;;;;;-4.66;56.99;100948.22;6073699;23;20018;-80
2022/01/11 08:43:34;;;;;;;5.13;3.03;;;;;;;-4.55;57.70;100932.94;6073620;23;20022;-79
2022/01/11 08:46:03;;;;;;;8.35;3.00;;;;;;;-4.37;57.47;100942.63;6099288;23;20338;-79
2022/01/11 08:48:35;;;;;;;8.90;3.25;;;;;;;-4.47;57.71;100919.88;6075943;23;20025;-80
2022/01/11 08:51:09;;;;;;;8.95;3.22;;;;;;;-3.97;57.37;100944.50;6053354;23;20098;-79
2022/01/11 08:53:35;;;;;;;6.82;3.55;;;;;;;-3.42;57.30;100954.91;6077509;23;20045;-79
2022/01/11 08:56:08;;;;;;;4.75;2.70;;;;;;;-3.21;56.77;100946.94;6089500;23;20014;-82
2022/01/11 08:58:38;;;;;;;5.72;3.17;;;;;;;-3.16;56.48;100949.78;6102201;23;20053;-81
2022/01/11 09:01:04;;;;;;;4.93;2.85;;;;;;;-3.22;56.42;100935.00;6045844;23;20105;-82
2022/01/11 09:03:33;;;;;;;11.95;3.72;;;;;;;-3.39;56.33;100923.72;6071900;23;20027;-80
2022/01/11 09:06:00;;;;;;;15.20;4.25;;;;;;;-3.42;56.29;100926.91;6070966;23;20015;-81
2022/01/11 09:08:26;;;;;;;6.32;3.67;;;;;;;-3.36;55.34;100941.72;6094619;23;20018;-82
2022/01/11 09:10:53;;;;;;;9.23;3.35;;;;;;;-3.36;56.11;100934.97;6093611;23;20018;-80
2022/01/11 09:13:20;;;;;;;6.18;2.95;;;;;;;-3.46;55.65;100927.53;6068211;23;20106;-82
2022/01/11 09:15:46;;;;;;;6.15;2.97;;;;;;;-3.21;56.11;100958.00;6046327;23;20023;-80
2022/01/11 09:18:12;;;;;;;7.63;3.50;;;;;;;-3.30;55.54;100941.25;6100433;23;20021;-80
2022/01/11 09:20:41;;;;;;;6.97;3.60;;;;;;;-3.18;55.36;100968.38;6097690;23;20035;-81
2022/01/11 09:23:08;;;;;;;9.27;3.70;;;;;;;-3.12;55.50;100956.84;6078741;23;20015;-80
2022/01/11 09:25:38;;;;;;;6.13;2.95;;;;;;;-3.18;54.88;100960.75;6113026;23;20025;-79
2022/01/11 09:28:07;;;;;;;8.32;3.72;;;;;;;-3.45;54.68;100952.19;6089333;23;20003;-80
2022/01/11 09:30:33;;;;;;;7.45;3.38;;;;;;;-3.57;55.07;100953.91;6080252;23;20046;-81
2022/01/11 09:33:01;;;;;;;5.75;3.03;;;;;;;-3.74;54.67;100946.03;6100241;23;20019;-79
2022/01/11 09:35:28;;;;;;;7.50;3.22;;;;;;;-3.78;55.20;100927.16;6097055;23;20030;-80
2022/01/11 09:38:07;;;;;;;5.20;3.13;;;;;;;-3.79;54.78;100921.94;6094613;23;20018;-80
2022/01/11 09:40:33;;;;;;;6.65;3.60;;;;;;;-3.68;54.50;100943.00;6041967;23;20018;-81
2022/01/11 09:43:05;;;;;;;4.97;2.92;;;;;;;-3.69;55.41;100913.25;6069209;23;20154;-81
2022/01/11 09:45:31;;;;;;;8.23;3.33;;;;;;;-3.45;54.03;100980.19;6103969;23;20043;-78
2022/01/11 09:47:57;;;;;;;7.50;3.55;;;;;;;-3.53;54.56;100977.09;6079928;23;20480;-81
2022/01/11 09:50:24;;;;;;;8.40;3.30;;;;;;;-3.57;54.18;100971.72;6067077;23;20026;-81
2022/01/11 09:53:06;;;;;;;8.93;3.58;;;;;;;-3.82;54.56;100940.44;6092494;23;20011;-81
2022/01/11 09:55:37;;;;;;;7.03;3.55;;;;;;;-3.64;54.40;100972.97;6066905;23;20086;-80
2022/01/11 09:58:06;;;;;;;6.88;3.00;;;;;;;-3.67;54.55;100963.50;6066743;23;20023;-81
2022/01/11 10:00:51;;;;;;;8.10;3.13;;;;;;;-3.47;54.47;100986.84;6064733;23;20023;-79
2022/01/11 10:04:08;;;;;;;8.07;3.28;;;;;;;-3.49;54.49;100975.66;6034666;23;20026;-80
2022/01/11 10:07:01;;;;;;;4.82;2.83;;;;;;;-3.71;53.64;100969.16;5988932;23;20031;-81
2022/01/11 10:09:30;;;;;;;6.40;2.78;;;;;;;-3.61;54.30;100974.84;6051279;23;20025;-79
2022/01/11 10:11:59;;;;;;;5.80;2.80;;;;;;;-3.56;54.27;100984.56;6065325;23;20015;-81
2022/01/11 10:14:33;;;;;;;7.03;2.85;;;;;;;-3.73;54.38;100975.78;6066802;23;20019;-81
2022/01/11 10:17:10;;;;;;;6.18;3.08;;;;;;;-4.40;53.86;100867.03;6090819;23;20018;-81
2022/01/11 10:19:40;;;;;;;7.60;3.42;;;;;;;-3.88;53.83;100977.31;6092124;23;20014;-82
2022/01/11 10:22:09;;;;;;;5.22;2.90;;;;;;;-3.80;54.01;100983.78;6044399;23;20090;-81
2022/01/11 10:24:39;;;;;;;4.40;2.70;;;;;;;-3.87;53.90;100992.66;6092279;23;20030;-81
2022/01/11 10:27:26;;;;;;;7.00;2.95;;;;;;;-4.06;53.77;100999.81;6072107;23;20030;-81
2022/01/11 10:29:59;;;;;;;5.95;3.10;;;;;;;-4.18;54.32;100990.53;6096357;23;20027;-83
2022/01/11 10:32:32;;;;;;;6.53;3.03;;;;;;;-4.40;53.05;100978.84;6073710;23;20082;-79
2022/01/11 10:35:40;;;;;;;7.38;3.60;;;;;;;-4.40;53.88;101011.91;6074578;23;20093;-80
2022/01/11 10:38:06;;;;;;;5.15;3.08;;;;;;;-4.60;53.72;100966.41;6050492;23;20492;-80
2022/01/11 10:40:45;;;;;;;8.30;3.42;;;;;;;-4.34;54.18;101002.94;6073600;23;20014;-82
2022/01/11 10:43:18;;;;;;;6.07;2.88;;;;;;;-4.46;54.26;100977.56;6067500;23;20025;-79
2022/01/11 10:45:48;;;;;;;6.90;3.25;;;;;;;-4.47;53.94;100979.22;6068601;23;20060;-80
2022/01/11 10:48:19;;;;;;;6.97;3.03;;;;;;;-4.75;52.71;100976.38;6044703;23;20085;-78
2022/01/11 10:50:53;;;;;;;6.40;3.13;;;;;;;-4.60;54.05;101007.97;6074734;23;20014;-79
2022/01/11 10:53:26;;;;;;;5.78;2.97;;;;;;;-4.88;53.28;100983.09;6083265;23;20018;-78
2022/01/11 10:55:57;;;;;;;5.57;3.05;;;;;;;-4.81;53.64;101003.88;6089166;23;20003;-80
2022/01/11 10:58:28;;;;;;;6.10;3.13;;;;;;;-4.91;53.50;101007.41;6101298;23;20031;-81
2022/01/11 11:00:56;;;;;;;5.70;2.80;;;;;;;-5.19;53.86;100967.28;6078864;23;20026;-80
2022/01/11 11:03:25;;;;;;;5.30;3.00;;;;;;;-5.02;54.18;101014.25;6113658;23;20003;-79
2022/01/11 11:05:59;;;;;;;6.97;3.00;;;;;;;-5.43;53.94;100981.63;6048060;23;20025;-80
2022/01/11 11:08:34;;;;;;;5.75;2.50;;;;;;;-5.12;54.31;100999.09;6069270;23;20019;-81
2022/01/11 11:11:14;;;;;;;6.35;2.70;;;;;;;-5.67;54.58;100900.38;6070744;23;20449;-85
2022/01/11 11:13:54;;;;;;;5.20;2.70;;;;;;;-6.18;54.14;100793.59;6069531;23;20019;-82
2022/01/11 11:16:25;;;;;;;5.03;2.72;;;;;;;-4.87;54.30;101012.81;6092406;23;20114;-79
2022/01/11 11:19:02;;;;;;;4.70;2.65;;;;;;;-4.90;53.52;101021.88;6069797;23;20014;-80
2022/01/11 11:21:57;;;;;;;4.82;2.63;;;;;;;-5.03;53.77;101015.00;6067556;23;20030;-78
2022/01/11 11:24:24;;;;;;;6.53;3.28;;;;;;;-5.06;53.93;101013.09;6069075;23;20015;-77
2022/01/11 11:26:53;;;;;;;5.82;3.00;;;;;;;-5.26;53.84;100986.28;6049560;23;20019;-80
2022/01/11 11:29:22;;;;;;;4.75;2.65;;;;;;;-5.86;53.12;100929.44;6095192;23;20023;-76
2022/01/11 11:31:49;;;;;;;5.95;2.42;;;;;;;-5.39;53.67;101031.78;6069945;23;20024;-75
2022/01/11 11:34:22;;;;;;;6.18;3.03;;;;;;;-5.71;53.62;101007.44;6047934;23;20023;-76
2022/01/11 11:36:48;;;;;;;5.13;2.72;;;;;;;-5.81;54.14;100975.41;6075034;23;20025;-80